Time;durP1;ratioP1;P1;durP2;ratioP2;P2;SDS_P1;SDS_P2;PMS_P1;PMS_P2;Temp;Humidity;BMP_temperature;BMP_pressure;BME280_temperature;BME280_humidity;BME280_pressure;Samples;Min_cycle;Max_cycle;Signal;HPM_P1;HPM_P2
2023/08/20 00:01:32;;;;;;;10.50;9.40;;;19.50;99.90;;;;;;5046881;28;20466;-70
2023/08/20 00:03:58;;;;;;;12.17;10.80;;;19.50;99.90;;;;;;5046413;28;20925;-71
2023/08/20 00:06:25;;;;;;;14.20;12.47;;;19.50;99.90;;;;;;5044693;28;20280;-71
2023/08/20 00:08:51;;;;;;;14.47;12.20;;;19.50;99.90;;;;;;5034621;28;20495;-71
2023/08/20 00:11:17;;;;;;;11.87;10.77;;;19.50;99.90;;;;;;5045727;28;20448;-71
2023/08/20 00:13:43;;;;;;;11.57;10.37;;;19.50;99.90;;;;;;5046775;28;20787;-71
2023/08/20 00:16:09;;;;;;;12.53;10.50;;;19.50;99.90;;;;;;5046407;28;20529;-71
2023/08/20 00:18:35;;;;;;;12.43;11.23;;;19.60;99.90;;;;;;5046050;28;20289;-71
2023/08/20 00:21:01;;;;;;;12.47;11.00;;;19.60;99.90;;;;;;5049594;28;20507;-71
2023/08/20 00:23:27;;;;;;;11.83;10.70;;;19.60;99.90;;;;;;5032513;28;20432;-71
2023/08/20 00:25:53;;;;;;;11.30;10.20;;;19.60;99.90;;;;;;5050101;28;20925;-71
2023/08/20 00:28:22;;;;;;;12.00;10.90;;;19.60;99.90;;;;;;5049233;28;20202;-71
2023/08/20 00:30:49;;;;;;;11.30;10.20;;;19.60;99.90;;;;;;5049920;28;20495;-71
2023/08/20 00:33:14;;;;;;;10.10;9.20;;;19.60;99.90;;;;;;5050411;28;21039;-71
2023/08/20 00:35:40;;;;;;;9.57;8.67;;;19.60;99.90;;;;;;5050505;28;20488;-71
2023/08/20 00:38:06;;;;;;;10.73;9.63;;;19.70;99.90;;;;;;5048268;28;20197;-71
2023/08/20 00:40:32;;;;;;;9.80;9.00;;;19.70;99.90;;;;;;5050644;28;20174;-71
2023/08/20 00:42:57;;;;;;;10.37;9.33;;;19.70;99.90;;;;;;5050507;28;20178;-71
2023/08/20 00:45:24;;;;;;;9.57;8.60;;;19.70;99.90;;;;;;5049760;28;20231;-71
2023/08/20 00:47:51;;;;;;;11.03;10.00;;;19.80;99.90;;;;;;5049666;28;20225;-71
2023/08/20 00:50:17;;;;;;;11.27;10.17;;;19.80;99.90;;;;;;5048565;28;20474;-71
2023/08/20 00:52:43;;;;;;;10.37;9.37;;;19.80;99.90;;;;;;5048812;28;20465;-71
2023/08/20 00:55:10;;;;;;;10.30;9.20;;;19.80;99.90;;;;;;5048314;28;20889;-71
2023/08/20 00:57:37;;;;;;;13.03;10.27;;;19.80;99.90;;;;;;5047444;28;20202;-71
2023/08/20 01:00:09;;;;;;;11.40;9.50;;;19.80;99.90;;;;;;5047882;28;20473;-71
2023/08/20 01:02:35;;;;;;;11.17;9.00;;;19.70;99.90;;;;;;5050055;28;21137;-71
2023/08/20 01:05:03;;;;;;;11.20;8.70;;;19.70;99.90;;;;;;5049701;28;20412;-71
2023/08/20 01:07:54;;;;;;;16.67;10.73;;;19.80;99.90;;;;;;5049266;28;20930;-71
2023/08/20 01:10:43;;;;;;;11.70;10.57;;;19.70;99.90;;;;;;5049568;28;20416;-71
2023/08/20 01:13:09;;;;;;;13.30;12.00;;;19.70;99.90;;;;;;5049782;28;20404;-71
2023/08/20 01:15:35;;;;;;;13.93;12.57;;;19.70;99.90;;;;;;5049740;28;20436;-71
2023/08/20 01:18:01;;;;;;;13.97;11.63;;;19.70;99.90;;;;;;5053726;28;20844;-71
2023/08/20 01:20:31;;;;;;;15.17;13.40;;;19.70;99.90;;;;;;5049520;28;20209;-71
2023/08/20 01:23:15;;;;;;;17.20;13.80;;;19.70;99.90;;;;;;5049620;28;20181;-71
2023/08/20 01:26:09;;;;;;;14.57;13.10;;;19.60;99.90;;;;;;5049224;28;20503;-71
2023/08/20 01:28:35;;;;;;;15.93;14.43;;;19.60;99.90;;;;;;5048511;28;20527;-71
2023/08/20 01:31:03;;;;;;;18.23;14.90;;;19.60;99.90;;;;;;5064250;28;20519;-71
2023/08/20 01:33:30;;;;;;;17.60;15.90;;;19.70;99.90;;;;;;5049302;28;20412;-71
2023/08/20 01:35:55;;;;;;;14.60;13.20;;;19.70;99.90;;;;;;5065007;28;20443;-71
2023/08/20 01:38:22;;;;;;;16.00;14.30;;;19.70;99.90;;;;;;5048373;28;20435;-71
2023/08/20 01:40:48;;;;;;;14.83;13.43;;;19.70;99.90;;;;;;5049698;28;20998;-71
2023/08/20 01:43:15;;;;;;;16.80;15.20;;;19.60;99.90;;;;;;5047882;28;20456;-71
2023/08/20 01:45:41;;;;;;;17.13;15.37;;;19.60;99.90;;;;;;5049068;28;20412;-71
2023/08/20 01:48:07;;;;;;;17.70;15.80;;;19.60;99.90;;;;;;5049017;28;20442;-71
2023/08/20 01:50:34;;;;;;;16.70;15.00;;;19.60;99.90;;;;;;5049107;28;21218;-71
2023/08/20 01:53:01;;;;;;;16.47;14.70;;;19.50;99.90;;;;;;5049304;28;20408;-71
2023/08/20 01:55:26;;;;;;;17.70;15.53;;;19.50;99.90;;;;;;5048776;28;20416;-71
2023/08/20 01:57:52;;;;;;;16.57;14.77;;;19.50;99.90;;;;;;5048126;28;20519;-71
2023/08/20 02:00:18;;;;;;;17.93;14.60;;;19.60;99.90;;;;;;5047808;28;20174;-71
2023/08/20 02:02:43;;;;;;;18.97;16.20;;;19.60;99.90;;;;;;5049489;28;20315;-71
2023/08/20 02:05:10;;;;;;;17.30;15.50;;;19.60;99.90;;;;;;5048219;28;20635;-71
2023/08/20 02:07:36;;;;;;;18.90;17.00;;;19.60;99.90;;;;;;5049121;28;20363;-71
2023/08/20 02:10:02;;;;;;;17.67;15.87;;;19.60;99.90;;;;;;5052008;28;20503;-71
2023/08/20 02:12:28;;;;;;;16.90;15.10;;;19.60;99.90;;;;;;5060545;28;20443;-71
2023/08/20 02:14:56;;;;;;;16.70;15.00;;;19.70;99.90;;;;;;5057710;28;20178;-71
2023/08/20 02:17:23;;;;;;;19.70;16.97;;;19.70;99.90;;;;;;5053704;28;20202;-71
2023/08/20 02:19:49;;;;;;;17.80;15.90;;;19.70;99.90;;;;;;5049673;28;20511;-71
2023/08/20 02:22:14;;;;;;;17.90;16.00;;;19.60;99.90;;;;;;5049221;28;20512;-71
2023/08/20 02:24:40;;;;;;;16.97;15.17;;;19.60;99.90;;;;;;5048182;28;20170;-71
2023/08/20 02:27:05;;;;;;;17.77;14.03;;;19.60;99.90;;;;;;5048067;28;20197;-71
2023/08/20 02:29:31;;;;;;;17.73;15.80;;;19.60;99.90;;;;;;5046795;28;20166;-71
2023/08/20 02:31:57;;;;;;;19.73;15.57;;;19.50;99.90;;;;;;5047269;28;20243;-71
2023/08/20 02:34:22;;;;;;;19.73;17.10;;;19.50;99.90;;;;;;5048241;28;20212;-71
2023/08/20 02:36:48;;;;;;;17.47;15.77;;;19.50;99.90;;;;;;5047094;28;20174;-71
2023/08/20 02:39:14;;;;;;;18.30;15.20;;;19.50;99.90;;;;;;5048380;28;20271;-71
2023/08/20 02:41:41;;;;;;;17.30;15.50;;;19.50;99.90;;;;;;5046842;28;20184;-71
2023/08/20 02:44:07;;;;;;;18.23;15.93;;;19.50;99.90;;;;;;5047396;28;20174;-71
2023/08/20 02:46:32;;;;;;;18.63;16.63;;;19.50;99.90;;;;;;5047208;28;20526;-71
2023/08/20 02:48:58;;;;;;;20.90;18.70;;;19.60;99.90;;;;;;5047737;28;20197;-71
2023/08/20 02:51:24;;;;;;;18.63;16.83;;;19.60;99.90;;;;;;5046888;28;20170;-71
2023/08/20 02:53:50;;;;;;;18.40;16.53;;;19.60;99.90;;;;;;5047837;28;20195;-71
2023/08/20 02:56:15;;;;;;;20.90;17.23;;;19.50;99.90;;;;;;5047794;28;20214;-71
2023/08/20 02:58:41;;;;;;;22.73;17.37;;;19.50;99.90;;;;;;5046306;28;20650;-71
2023/08/20 03:01:06;;;;;;;20.20;14.93;;;19.50;99.90;;;;;;5046391;28;20189;-71
2023/08/20 03:03:32;;;;;;;17.80;15.80;;;19.50;99.90;;;;;;5047815;28;20174;-71
2023/08/20 03:05:58;;;;;;;18.20;15.60;;;19.50;99.90;;;;;;5047197;28;20182;-71
2023/08/20 03:08:24;;;;;;;17.93;16.23;;;19.50;99.90;;;;;;5047124;28;20204;-71
2023/08/20 03:10:49;;;;;;;17.60;15.10;;;19.50;99.90;;;;;;5047819;28;20170;-71
2023/08/20 03:13:15;;;;;;;19.83;16.40;;;19.50;99.90;;;;;;5047517;28;20174;-71
2023/08/20 03:15:41;;;;;;;18.30;15.63;;;19.40;99.90;;;;;;5046010;28;20201;-71
2023/08/20 03:18:07;;;;;;;18.03;16.13;;;19.40;99.90;;;;;;5045409;28;20206;-71
2023/08/20 03:20:32;;;;;;;15.93;14.20;;;19.30;99.90;;;;;;5047649;28;20420;-71
2023/08/20 03:22:58;;;;;;;16.40;14.70;;;19.30;99.90;;;;;;5047856;28;20178;-71
2023/08/20 03:25:24;;;;;;;15.90;14.30;;;19.30;99.90;;;;;;5046777;28;20177;-71
2023/08/20 03:27:51;;;;;;;15.67;13.97;;;19.30;99.90;;;;;;5046340;28;20213;-71
2023/08/20 03:30:17;;;;;;;15.10;13.50;;;19.30;99.90;;;;;;5047281;28;20436;-71
2023/08/20 03:32:43;;;;;;;15.57;14.07;;;19.20;99.90;;;;;;5047476;28;20467;-71
2023/08/20 03:35:09;;;;;;;15.40;13.90;;;19.20;99.90;;;;;;5047179;28;20201;-71
2023/08/20 03:37:35;;;;;;;17.00;14.43;;;19.10;99.90;;;;;;5045361;28;20632;-71
2023/08/20 03:40:00;;;;;;;20.03;17.93;;;19.20;99.90;;;;;;5047254;28;20256;-71
2023/08/20 03:42:26;;;;;;;18.67;16.67;;;19.20;99.90;;;;;;5045956;28;20213;-71
2023/08/20 03:44:52;;;;;;;19.57;17.57;;;19.20;99.90;;;;;;5050295;28;20216;-71
2023/08/20 03:47:20;;;;;;;19.90;17.90;;;19.20;99.90;;;;;;5050134;28;20712;-71
2023/08/20 03:49:48;;;;;;;19.47;17.40;;;19.30;99.90;;;;;;5047104;28;20170;-71
2023/08/20 03:52:13;;;;;;;20.07;17.90;;;19.30;99.90;;;;;;5047441;28;20491;-71
2023/08/20 03:54:39;;;;;;;18.30;16.60;;;19.30;99.90;;;;;;5053380;28;20866;-71
2023/08/20 03:57:05;;;;;;;19.20;17.33;;;19.30;99.90;;;;;;5049817;28;20181;-71
2023/08/20 03:59:31;;;;;;;19.50;17.23;;;19.30;99.90;;;;;;5048978;28;20177;-71
2023/08/20 04:01:57;;;;;;;21.93;17.70;;;19.30;99.90;;;;;;5051098;28;20170;-71
2023/08/20 04:04:22;;;;;;;20.17;18.10;;;19.40;99.90;;;;;;5033121;28;20461;-71
2023/08/20 04:06:48;;;;;;;19.73;17.77;;;19.40;99.90;;;;;;5049868;28;20447;-71
2023/08/20 04:09:14;;;;;;;18.17;16.20;;;19.30;99.90;;;;;;5051061;28;20700;-71
2023/08/20 04:11:39;;;;;;;17.63;15.83;;;19.30;99.90;;;;;;5054592;28;20190;-71
2023/08/20 04:14:05;;;;;;;21.40;19.20;;;19.30;99.90;;;;;;5050855;28;20606;-71
2023/08/20 04:16:31;;;;;;;21.90;19.70;;;19.30;99.90;;;;;;5048820;28;20181;-71
2023/08/20 04:18:56;;;;;;;23.37;19.33;;;19.30;99.90;;;;;;5050722;28;20225;-71
2023/08/20 04:21:22;;;;;;;22.97;20.50;;;19.30;99.90;;;;;;5050874;28;20162;-71
2023/08/20 04:23:48;;;;;;;23.97;21.23;;;19.40;99.90;;;;;;5050582;28;20260;-71
2023/08/20 04:26:14;;;;;;;22.70;20.40;;;19.40;99.90;;;;;;5050376;28;20706;-71
2023/08/20 04:28:39;;;;;;;22.70;20.43;;;19.40;99.90;;;;;;5050012;28;20277;-71
2023/08/20 04:31:05;;;;;;;24.13;21.53;;;19.40;99.90;;;;;;5065801;28;20674;-71
2023/08/20 04:33:31;;;;;;;25.07;22.43;;;19.40;99.90;;;;;;5050745;28;20165;-71
2023/08/20 04:35:56;;;;;;;26.63;20.30;;;19.40;99.90;;;;;;5049997;28;20174;-71
2023/08/20 04:38:22;;;;;;;24.07;21.50;;;19.50;99.90;;;;;;5049829;28;20221;-71
2023/08/20 04:40:48;;;;;;;22.93;20.57;;;19.50;99.90;;;;;;5050366;28;20174;-70
2023/08/20 04:43:15;;;;;;;24.03;21.43;;;19.50;99.90;;;;;;5050417;28;20173;-71
2023/08/20 04:45:41;;;;;;;24.03;21.53;;;19.50;99.90;;;;;;5050197;28;20412;-71
2023/08/20 04:48:07;;;;;;;22.23;19.93;;;19.40;99.90;;;;;;5049509;28;20484;-71
2023/08/20 04:50:33;;;;;;;23.97;20.80;;;19.40;99.90;;;;;;5049204;28;20459;-71
2023/08/20 04:53:02;;;;;;;23.40;20.90;;;19.40;99.90;;;;;;5050017;28;20435;-70
2023/08/20 04:55:28;;;;;;;25.03;21.03;;;19.40;99.90;;;;;;5065400;28;20173;-71
2023/08/20 04:57:54;;;;;;;23.77;21.20;;;19.40;99.90;;;;;;5049543;28;20428;-71
2023/08/20 05:00:21;;;;;;;22.03;19.73;;;19.30;99.90;;;;;;5049212;28;20419;-71
2023/08/20 05:02:46;;;;;;;24.67;20.73;;;19.30;99.90;;;;;;5065511;28;20189;-71
2023/08/20 05:05:12;;;;;;;21.63;19.30;;;19.30;99.90;;;;;;5048245;28;20822;-70
2023/08/20 05:07:38;;;;;;;21.90;19.57;;;19.30;99.90;;;;;;5048601;28;20208;-71
2023/08/20 05:10:04;;;;;;;26.17;21.90;;;19.40;99.90;;;;;;5031515;28;20174;-71
2023/08/20 05:12:30;;;;;;;33.30;22.90;;;19.40;99.90;;;;;;5049955;28;20177;-71
2023/08/20 05:14:55;;;;;;;34.77;25.10;;;19.40;99.90;;;;;;5049754;28;20949;-71
2023/08/20 05:17:21;;;;;;;29.87;23.40;;;19.50;99.90;;;;;;5048038;28;20276;-71
2023/08/20 05:19:47;;;;;;;32.07;23.30;;;19.50;99.90;;;;;;5050236;28;20769;-71
2023/08/20 05:22:12;;;;;;;34.77;26.37;;;19.60;99.90;;;;;;5049902;28;20445;-71
2023/08/20 05:24:39;;;;;;;34.33;26.37;;;19.60;99.90;;;;;;5049654;28;20182;-71
2023/08/20 05:27:05;;;;;;;30.87;25.13;;;19.60;99.90;;;;;;5049272;28;20566;-71
2023/08/20 05:29:31;;;;;;;33.33;26.07;;;19.70;99.90;;;;;;5051160;28;20839;-71
2023/08/20 05:31:57;;;;;;;30.63;25.53;;;19.70;99.90;;;;;;5071752;28;20436;-71
2023/08/20 05:34:22;;;;;;;32.03;23.70;;;19.70;99.90;;;;;;5053398;28;20404;-71
2023/08/20 05:36:48;;;;;;;33.73;25.47;;;19.70;99.90;;;;;;5053798;28;20181;-71
2023/08/20 05:39:13;;;;;;;39.20;28.00;;;19.70;99.90;;;;;;5048702;28;20200;-71
2023/08/20 05:41:39;;;;;;;48.43;29.77;;;19.70;99.90;;;;;;5049303;28;20253;-71
2023/08/20 05:44:05;;;;;;;36.50;26.50;;;19.70;99.90;;;;;;5049406;28;20228;-71
2023/08/20 05:46:30;;;;;;;39.00;28.17;;;19.70;99.90;;;;;;5063683;28;20285;-71
2023/08/20 05:48:56;;;;;;;36.17;26.63;;;19.60;99.90;;;;;;5049412;28;20280;-71
2023/08/20 05:51:22;;;;;;;32.50;24.67;;;19.70;99.90;;;;;;5049281;28;20192;-70
2023/08/20 05:53:47;;;;;;;32.47;24.40;;;19.70;99.90;;;;;;5048977;28;20181;-71
2023/08/20 05:56:13;;;;;;;34.53;25.40;;;19.80;99.90;;;;;;5048696;28;20695;-71
2023/08/20 05:58:39;;;;;;;33.03;25.00;;;19.80;99.90;;;;;;5047267;28;20288;-71
2023/08/20 06:01:04;;;;;;;30.10;23.27;;;19.90;99.90;;;;;;5048306;28;20635;-71
2023/08/20 06:03:30;;;;;;;32.03;24.73;;;19.90;99.90;;;;;;5048793;28;20208;-71
2023/08/20 06:05:59;;;;;;;30.60;23.47;;;19.90;99.90;;;;;;5048342;28;20683;-71
2023/08/20 06:08:24;;;;;;;27.90;20.87;;;19.90;99.90;;;;;;5048087;28;20215;-72
2023/08/20 06:10:51;;;;;;;21.97;19.63;;;19.90;99.90;;;;;;5048716;28;20491;-71
2023/08/20 06:13:16;;;;;;;26.03;22.20;;;20.00;99.90;;;;;;5047576;28;20205;-71
2023/08/20 06:15:42;;;;;;;24.30;20.20;;;20.10;99.90;;;;;;5055698;28;20869;-71
2023/08/20 06:18:08;;;;;;;21.93;19.63;;;20.20;99.90;;;;;;5056439;28;20232;-71
2023/08/20 06:20:33;;;;;;;23.33;20.07;;;20.40;99.90;;;;;;5048699;28;20181;-71
2023/08/20 06:22:59;;;;;;;25.90;18.67;;;20.60;99.90;;;;;;5047083;28;20234;-71
2023/08/20 06:25:25;;;;;;;21.50;19.20;;;20.80;99.90;;;;;;5048294;28;20181;-71
2023/08/20 06:27:50;;;;;;;24.70;17.67;;;20.90;99.90;;;;;;5048238;28;20605;-71
2023/08/20 06:30:16;;;;;;;20.90;18.03;;;21.10;99.90;;;;;;5049345;28;20197;-71
2023/08/20 06:32:44;;;;;;;20.37;16.93;;;21.30;99.90;;;;;;5048393;28;20273;-71
2023/08/20 06:35:09;;;;;;;17.63;15.77;;;21.40;99.90;;;;;;5046505;28;20185;-71
2023/08/20 06:37:35;;;;;;;18.90;16.43;;;21.40;99.90;;;;;;5047522;28;20433;-71
2023/08/20 06:40:01;;;;;;;18.27;16.37;;;21.70;99.90;;;;;;5048012;28;20469;-71
2023/08/20 06:42:27;;;;;;;20.10;17.30;;;21.80;99.90;;;;;;5048130;28;20174;-71
2023/08/20 06:44:52;;;;;;;18.67;15.73;;;22.00;99.90;;;;;;5046711;28;20307;-71
2023/08/20 06:47:18;;;;;;;16.53;14.77;;;22.20;99.90;;;;;;5046951;28;20582;-71
2023/08/20 06:49:44;;;;;;;16.50;14.77;;;22.30;99.90;;;;;;5048323;28;20251;-71
2023/08/20 06:52:09;;;;;;;18.23;15.70;;;22.30;99.90;;;;;;5047854;28;20166;-71
2023/08/20 06:54:35;;;;;;;18.13;14.23;;;22.40;99.90;;;;;;5048129;28;20181;-71
2023/08/20 06:57:01;;;;;;;15.47;13.87;;;22.40;99.90;;;;;;5045738;28;20789;-71
2023/08/20 06:59:27;;;;;;;16.20;14.50;;;22.50;99.90;;;;;;5040682;28;20213;-71
2023/08/20 07:01:52;;;;;;;15.07;13.60;;;22.60;99.90;;;;;;5046201;28;20523;-71
2023/08/20 07:04:18;;;;;;;14.63;13.00;;;22.50;99.90;;;;;;5055250;28;20195;-70
2023/08/20 07:06:44;;;;;;;14.40;12.67;;;22.50;99.90;;;;;;5046627;28;20206;-71
2023/08/20 07:09:10;;;;;;;13.97;12.53;;;22.40;99.90;;;;;;5047816;28;20217;-71
2023/08/20 07:11:35;;;;;;;14.43;13.03;;;22.40;99.90;;;;;;5046337;28;20538;-71
2023/08/20 07:14:01;;;;;;;16.83;12.97;;;22.40;99.90;;;;;;5047644;28;20182;-71
2023/08/20 07:16:27;;;;;;;16.97;12.97;;;22.40;99.90;;;;;;5046676;28;20206;-71
2023/08/20 07:18:53;;;;;;;14.27;12.73;;;22.30;99.90;;;;;;5047625;28;20209;-71
2023/08/20 07:21:18;;;;;;;14.50;13.17;;;22.40;99.90;;;;;;5047816;28;20209;-71
2023/08/20 07:23:44;;;;;;;14.83;13.33;;;22.40;99.90;;;;;;5044211;28;20921;-71
2023/08/20 07:26:15;;;;;;;15.73;12.73;;;22.40;99.90;;;;;;5043034;28;21126;-71
2023/08/20 07:28:56;;;;;;;13.60;12.30;;;22.40;99.90;;;;;;5044518;28;20198;-71
2023/08/20 07:31:29;;;;;;;16.80;13.43;;;22.40;99.90;;;;;;5045565;28;20810;-71
2023/08/20 07:33:56;;;;;;;13.53;12.13;;;22.40;99.90;;;;;;5046601;28;20420;-71
2023/08/20 07:36:23;;;;;;;14.50;13.00;;;22.50;99.90;;;;;;5045808;28;20440;-71
2023/08/20 07:38:49;;;;;;;15.20;13.80;;;22.40;99.90;;;;;;5065148;28;20439;-71
2023/08/20 07:41:15;;;;;;;15.00;13.60;;;22.40;99.90;;;;;;5047978;28;20511;-71
2023/08/20 07:43:41;;;;;;;16.90;15.20;;;22.40;99.90;;;;;;5038155;28;20515;-71
2023/08/20 07:46:08;;;;;;;15.07;13.57;;;22.40;99.90;;;;;;5045722;28;20408;-71
2023/08/20 07:48:34;;;;;;;15.63;14.00;;;22.50;99.90;;;;;;5046800;28;20516;-71
2023/08/20 07:51:01;;;;;;;19.30;14.80;;;22.50;99.90;;;;;;5047441;28;20509;-71
2023/08/20 07:53:27;;;;;;;15.93;14.20;;;22.50;99.90;;;;;;5047087;28;20467;-71
2023/08/20 07:55:53;;;;;;;18.23;12.47;;;22.50;99.90;;;;;;5046897;28;20420;-71
2023/08/20 07:58:18;;;;;;;16.90;15.20;;;22.60;99.90;;;;;;5043320;28;20209;-71
2023/08/20 08:00:44;;;;;;;19.30;15.67;;;22.70;99.90;;;;;;5040146;28;20193;-71
2023/08/20 08:03:10;;;;;;;14.90;13.10;;;22.80;99.90;;;;;;5047242;28;20181;-71
2023/08/20 08:05:36;;;;;;;17.90;16.10;;;22.80;99.90;;;;;;5039029;28;20235;-71
2023/08/20 08:08:02;;;;;;;15.20;13.10;;;22.90;99.90;;;;;;5039931;28;20704;-71
2023/08/20 08:10:28;;;;;;;14.10;12.80;;;22.90;99.90;;;;;;5047183;28;20420;-71
2023/08/20 08:12:55;;;;;;;17.53;13.80;;;23.00;99.90;;;;;;5047236;28;20845;-71
2023/08/20 08:15:20;;;;;;;14.97;13.50;;;23.00;99.90;;;;;;5027107;28;20421;-71
2023/08/20 08:17:46;;;;;;;14.67;12.97;;;23.20;99.90;;;;;;5026594;28;20870;-71
2023/08/20 08:20:12;;;;;;;16.23;11.90;;;23.20;99.90;;;;;;5027564;28;20546;-71
2023/08/20 08:22:38;;;;;;;12.87;11.67;;;23.30;99.90;;;;;;5035331;28;20184;-71
2023/08/20 08:25:05;;;;;;;17.77;12.97;;;23.30;99.90;;;;;;5040213;28;20465;-71
2023/08/20 08:27:30;;;;;;;13.17;11.77;;;23.40;99.90;;;;;;5040395;28;20459;-71
2023/08/20 08:29:56;;;;;;;9.90;9.10;;;23.40;99.90;;;;;;5039206;28;20780;-71
2023/08/20 08:32:22;;;;;;;9.63;8.73;;;23.50;99.90;;;;;;5037313;28;20190;-71
2023/08/20 08:34:47;;;;;;;10.30;9.30;;;23.50;99.90;;;;;;5037048;28;20182;-71
2023/08/20 08:37:13;;;;;;;10.83;9.83;;;23.50;99.90;;;;;;5038396;28;20199;-71
2023/08/20 08:39:39;;;;;;;10.30;9.37;;;23.60;99.90;;;;;;5048228;28;20215;-71
2023/08/20 08:42:05;;;;;;;11.37;10.27;;;23.70;99.90;;;;;;5050423;28;20260;-71
2023/08/20 08:44:32;;;;;;;10.40;9.40;;;23.70;99.90;;;;;;5050206;28;20190;-71
2023/08/20 08:46:58;;;;;;;10.07;9.17;;;23.80;99.90;;;;;;5050551;28;20444;-71
2023/08/20 08:49:25;;;;;;;8.20;7.43;;;23.90;99.90;;;;;;5051972;28;20795;-71
2023/08/20 08:51:53;;;;;;;8.50;7.70;;;24.00;99.90;;;;;;5059629;28;20646;-71
2023/08/20 08:54:21;;;;;;;9.80;7.87;;;24.00;99.90;;;;;;5060557;28;20472;-71
2023/08/20 08:56:46;;;;;;;8.37;7.70;;;24.20;99.90;;;;;;5056087;28;20426;-71
2023/08/20 08:59:12;;;;;;;7.83;7.13;;;24.30;99.90;;;;;;5052201;28;20432;-71
2023/08/20 09:01:41;;;;;;;11.20;8.33;;;24.30;99.90;;;;;;5050348;28;20460;-71
2023/08/20 09:04:07;;;;;;;8.40;7.60;;;24.20;99.90;;;;;;5049042;28;20260;-71
2023/08/20 09:06:49;;;;;;;9.10;8.20;;;24.30;99.90;;;;;;5042380;28;20547;-71
2023/08/20 09:09:17;;;;;;;8.73;8.00;;;24.20;99.90;;;;;;5049186;28;20209;-71
2023/08/20 09:11:42;;;;;;;9.53;8.63;;;24.20;99.90;;;;;;5047258;28;20531;-71
2023/08/20 09:14:08;;;;;;;9.10;8.30;;;24.10;99.90;;;;;;5049907;28;20511;-71
2023/08/20 09:16:34;;;;;;;9.13;8.33;;;24.00;99.90;;;;;;5049290;28;20185;-71
2023/08/20 09:19:01;;;;;;;8.70;8.00;;;24.00;99.90;;;;;;5049499;28;20201;-71
2023/08/20 09:21:30;;;;;;;8.67;7.97;;;23.90;99.90;;;;;;5046478;28;20551;-71
2023/08/20 09:24:00;;;;;;;8.77;7.97;;;23.90;99.90;;;;;;5047347;28;20417;-71
2023/08/20 09:26:26;;;;;;;8.40;7.60;;;24.00;99.90;;;;;;5042188;28;20492;-71
2023/08/20 09:28:54;;;;;;;9.00;8.20;;;24.00;99.90;;;;;;5039797;28;20448;-71
2023/08/20 09:31:20;;;;;;;9.33;7.47;;;24.20;99.90;;;;;;5045701;28;21417;-72
2023/08/20 09:33:53;;;;;;;9.90;7.80;;;24.40;99.90;;;;;;5043398;28;20410;-71
2023/08/20 09:36:34;;;;;;;7.87;7.07;;;24.60;99.90;;;;;;5045431;28;20197;-71
2023/08/20 09:39:02;;;;;;;8.10;7.43;;;24.80;99.90;;;;;;5046451;28;20440;-71
2023/08/20 09:41:29;;;;;;;8.57;7.60;;;25.00;99.90;;;;;;5047101;28;20420;-71
2023/08/20 09:43:58;;;;;;;7.97;6.93;;;25.20;99.90;;;;;;5047392;28;20515;-71
2023/08/20 09:46:27;;;;;;;7.97;7.27;;;25.40;99.90;;;;;;5043245;28;20550;-71
2023/08/20 09:48:58;;;;;;;8.50;7.80;;;25.50;99.90;;;;;;5048731;28;20493;-71
2023/08/20 09:51:28;;;;;;;10.13;7.50;;;25.60;99.90;;;;;;5048442;28;20409;-70
2023/08/20 09:54:03;;;;;;;8.47;7.67;;;25.50;99.90;;;;;;5048022;28;20409;-71
2023/08/20 09:56:30;;;;;;;8.70;8.00;;;25.50;99.90;;;;;;5045690;28;20858;-71
2023/08/20 09:58:57;;;;;;;9.00;8.10;;;25.40;99.90;;;;;;5043998;28;20502;-71
2023/08/20 10:01:25;;;;;;;8.53;7.83;;;25.40;99.90;;;;;;5045438;28;20432;-71
2023/08/20 10:03:51;;;;;;;9.27;6.77;;;25.30;99.90;;;;;;5046617;28;20435;-71
2023/08/20 10:06:18;;;;;;;8.27;7.47;;;25.20;99.90;;;;;;5045078;28;20424;-71
2023/08/20 10:08:46;;;;;;;8.07;7.37;;;25.20;99.90;;;;;;5045056;28;20202;-71
2023/08/20 10:11:12;;;;;;;7.73;7.03;;;25.50;99.90;;;;;;5048137;28;20412;-71
2023/08/20 10:13:38;;;;;;;8.57;7.77;;;25.70;99.90;;;;;;5048484;28;20462;-71
2023/08/20 10:16:04;;;;;;;8.80;8.00;;;25.90;99.90;;;;;;5043972;28;20435;-72
2023/08/20 10:18:30;;;;;;;8.53;7.93;;;26.10;99.90;;;;;;5047366;28;20436;-72
2023/08/20 10:20:59;;;;;;;8.10;7.50;;;26.40;99.90;;;;;;5048177;28;20419;-71
2023/08/20 10:23:25;;;;;;;8.67;7.80;;;26.60;99.90;;;;;;5045458;28;20726;-71
2023/08/20 10:26:06;;;;;;;7.03;6.53;;;26.70;99.90;;;;;;5046624;28;20484;-71
2023/08/20 10:28:31;;;;;;;7.33;6.73;;;26.70;99.90;;;;;;5045379;28;20304;-71
2023/08/20 10:31:07;;;;;;;7.00;6.40;;;26.60;99.90;;;;;;5047668;28;21009;-71
2023/08/20 10:33:37;;;;;;;7.87;7.07;;;26.40;99.90;;;;;;5048823;28;20995;-71
2023/08/20 10:36:15;;;;;;;7.60;7.00;;;26.20;99.90;;;;;;5031500;28;20499;-71
2023/08/20 10:38:40;;;;;;;9.07;8.27;;;26.10;99.90;;;;;;5046199;28;20536;-71
2023/08/20 10:41:10;;;;;;;8.53;7.80;;;26.00;99.90;;;;;;5046848;28;20477;-71
2023/08/20 10:43:45;;;;;;;8.60;7.90;;;26.00;99.90;;;;;;5044705;28;20578;-72
2023/08/20 10:46:34;;;;;;;8.80;8.10;;;25.80;99.90;;;;;;5044178;28;20447;-72
2023/08/20 10:49:06;;;;;;;8.70;7.90;;;25.70;99.90;;;;;;5048026;28;20440;-71
2023/08/20 10:51:31;;;;;;;11.10;9.67;;;25.70;99.90;;;;;;5047765;28;20478;-71
2023/08/20 10:54:03;;;;;;;9.53;8.53;;;25.70;99.90;;;;;;5050589;28;20416;-73
2023/08/20 10:56:49;;;;;;;9.13;8.33;;;25.70;99.90;;;;;;5039420;28;20738;-71
2023/08/20 10:59:22;;;;;;;9.37;8.57;;;25.90;99.90;;;;;;5047387;28;20427;-71
2023/08/20 11:01:56;;;;;;;9.10;8.40;;;26.20;99.90;;;;;;5049912;28;20776;-71
2023/08/20 11:04:26;;;;;;;8.87;8.17;;;26.40;99.90;;;;;;5049302;28;20484;-71
2023/08/20 11:06:56;;;;;;;9.83;9.03;;;26.60;99.90;;;;;;5050553;28;20817;-71
2023/08/20 11:09:24;;;;;;;8.67;7.87;;;26.70;99.90;;;;;;5056975;28;20443;-71
2023/08/20 11:11:51;;;;;;;9.40;7.40;;;26.70;99.90;;;;;;5055271;28;20427;-71
2023/08/20 11:14:19;;;;;;;9.00;8.20;;;26.60;99.90;;;;;;5050433;28;20432;-71
2023/08/20 11:16:46;;;;;;;9.27;8.43;;;26.40;99.90;;;;;;5050657;28;20469;-71
2023/08/20 11:19:12;;;;;;;9.67;8.87;;;26.30;99.90;;;;;;5052179;28;20980;-71
2023/08/20 11:21:40;;;;;;;10.60;9.70;;;26.20;99.90;;;;;;5052222;28;20848;-71
2023/08/20 11:24:06;;;;;;;11.13;10.03;;;26.10;99.90;;;;;;5049956;28;20929;-71
2023/08/20 11:26:38;;;;;;;10.67;9.87;;;26.00;99.90;;;;;;5054876;28;20459;-71
2023/08/20 11:29:08;;;;;;;11.53;10.53;;;26.20;99.90;;;;;;5046137;28;20984;-71
2023/08/20 11:31:37;;;;;;;10.97;10.03;;;26.40;99.90;;;;;;5044203;28;20439;-71
2023/08/20 11:34:04;;;;;;;10.77;9.87;;;26.40;99.90;;;;;;5046864;28;20408;-71
2023/08/20 11:36:30;;;;;;;11.23;10.13;;;26.30;99.90;;;;;;5044842;28;20465;-71
2023/08/20 11:38:55;;;;;;;14.43;12.60;;;26.30;99.90;;;;;;5048195;28;21074;-71
2023/08/20 11:41:22;;;;;;;13.10;12.10;;;26.20;99.90;;;;;;5046956;28;20427;-71
2023/08/20 11:43:49;;;;;;;15.63;14.17;;;26.10;99.90;;;;;;5047248;28;20394;-71
2023/08/20 11:46:19;;;;;;;15.20;13.90;;;26.10;99.90;;;;;;5045062;28;20813;-71
2023/08/20 11:49:05;;;;;;;12.97;11.73;;;26.10;99.90;;;;;;5046591;28;20429;-71
2023/08/20 11:51:38;;;;;;;14.10;13.03;;;26.20;99.90;;;;;;5044656;28;20413;-70
2023/08/20 11:54:17;;;;;;;14.67;13.47;;;26.40;99.90;;;;;;5047096;28;20404;-71
2023/08/20 11:56:46;;;;;;;18.87;17.33;;;26.60;99.90;;;;;;5045175;28;20974;-71
2023/08/20 11:59:12;;;;;;;21.70;19.70;;;26.70;99.90;;;;;;5039021;28;20849;-71
2023/08/20 12:01:38;;;;;;;22.57;20.57;;;26.70;99.90;;;;;;5047237;28;20461;-71
2023/08/20 12:04:06;;;;;;;20.43;18.80;;;26.60;99.90;;;;;;5047214;28;20416;-71
2023/08/20 12:06:34;;;;;;;21.90;20.10;;;26.40;99.90;;;;;;5037163;28;20221;-71
2023/08/20 12:09:01;;;;;;;21.70;19.67;;;26.30;99.90;;;;;;5046824;28;20428;-70
2023/08/20 12:11:28;;;;;;;21.70;19.70;;;26.40;99.90;;;;;;5048483;28;20420;-70
2023/08/20 12:13:54;;;;;;;20.43;18.77;;;26.60;99.90;;;;;;5054948;28;20459;-70
2023/08/20 12:16:24;;;;;;;22.57;20.77;;;26.70;99.90;;;;;;5058336;28;20454;-70
2023/08/20 12:18:50;;;;;;;23.00;21.00;;;26.80;99.90;;;;;;5059529;28;20424;-70
2023/08/20 12:21:16;;;;;;;23.53;21.73;;;27.00;99.90;;;;;;5053767;28;20443;-70
2023/08/20 12:23:41;;;;;;;22.33;20.40;;;27.10;99.90;;;;;;5050837;28;20443;-70
2023/08/20 12:26:10;;;;;;;22.00;20.20;;;27.20;99.90;;;;;;5049247;28;20174;-71
2023/08/20 12:28:36;;;;;;;22.23;20.53;;;27.20;99.90;;;;;;5064563;28;20577;-70
2023/08/20 12:31:03;;;;;;;21.90;20.03;;;27.30;99.90;;;;;;5043368;28;20451;-70